Strona główna
METAR-TAF:

METAR-TAF

Lotnisko :

Port lotniczy Sandefjord-Torp

Sandefjord, Norwegia

Szerokość geograficzna: 59-12N, Długość geograficzna: 010-16E, wysokość: 8 m

Aktualna obserwacja pogody

Raport powstał 17 minut temu, godzina 20:20 UTC
Wiatr 5 kt od południowo-południowy wschód, zmienny między wschód i południe
Temperatura 17°C
Wilgotność 48%
Ciśnienie 1030 hPa
Widzialność 10 km lub więcej
Brak chmur poniżej 1500 m i brak chmur cumulonimbus

METAR: ENTO 302020Z 16005KT 100V180 CAVOK 17/06 Q1030 NOSIG

czas: 22:37 (20:37 UTC)

Prognoza

Prognoza ważna od 30 godzina 18 UTC do 31 godzina 18 UTC
Wiatr 8 kt od północno-północny wschód
Widzialność 10 km lub więcej
Brak chmur poniżej 1500 m i brak chmur cumulonimbus

TAF: ENTO 3018/3118 03008KT CAVOK

Obserwacja i prognoza pogody dla ponad 4000 lotnisk (raport METAR i TAF).

Dostępne stacje oznaczono żółtymi i czerwonymi punktami na mapie.

Najedź kursorem aby zobaczyć nazwę stacji.

Kliknij aby zobaczyć obserwacje i prognozy pogody.

Aby zmienić mapę: kliknij na zielony przycisk z czarnym krzyżykiem, aby powiększyć; na zielony przycisk z myślnikiem, aby pomniejszyć; na zielone strzałki, aby przejść do map sąsiednich.


METAR-TAF: